createdAt,value
2019-02-08T00:03:04.841Z,3.60
2019-02-08T00:07:57.257Z,3.60
2019-02-08T00:12:50.069Z,3.70
2019-02-08T00:17:43.145Z,3.70
2019-02-08T00:22:35.563Z,3.80
2019-02-08T00:27:28.121Z,3.80
2019-02-08T00:32:20.724Z,3.80
2019-02-08T00:37:13.385Z,3.90
2019-02-08T00:42:05.969Z,4.00
2019-02-08T00:46:58.916Z,4.00
2019-02-08T00:51:51.332Z,4.00
2019-02-08T00:56:44.097Z,4.10
2019-02-08T01:01:36.836Z,4.10
2019-02-08T01:06:29.657Z,4.10
2019-02-08T01:11:22.153Z,4.20
2019-02-08T01:16:14.804Z,4.20
2019-02-08T01:21:08.025Z,4.20
2019-02-08T01:26:00.366Z,4.20
2019-02-08T01:30:53.055Z,4.10
2019-02-08T01:35:45.809Z,3.90
2019-02-08T01:40:39.654Z,3.80
2019-02-08T01:45:33.237Z,3.60
2019-02-08T01:50:27.488Z,3.40
2019-02-08T01:55:20.041Z,3.30
2019-02-08T02:00:17.993Z,3.20
2019-02-08T02:05:10.717Z,3.20
2019-02-08T02:10:04.557Z,3.10
2019-02-08T02:14:57.196Z,3.10
2019-02-08T02:19:49.813Z,3.00
2019-02-08T02:24:42.494Z,3.10
2019-02-08T02:29:35.357Z,3.00
2019-02-08T02:34:27.986Z,3.00
2019-02-08T02:39:20.498Z,3.00
2019-02-08T02:44:12.966Z,3.10
2019-02-08T02:49:05.862Z,3.10
2019-02-08T02:54:04.597Z,3.00
2019-02-08T02:58:52.795Z,3.00
2019-02-08T03:03:45.209Z,3.00
2019-02-08T03:08:39.539Z,3.00
2019-02-08T03:13:31.397Z,3.10
2019-02-08T03:18:23.833Z,3.20
2019-02-08T03:23:16.592Z,3.20
2019-02-08T03:28:08.937Z,3.30
2019-02-08T03:33:01.669Z,3.50
2019-02-08T03:37:56.352Z,3.50
2019-02-08T03:42:48.966Z,3.60
2019-02-08T03:47:41.677Z,3.70
2019-02-08T03:52:33.892Z,3.80
2019-02-08T03:57:26.559Z,3.90
2019-02-08T04:02:18.997Z,4.00
2019-02-08T04:07:11.387Z,4.00
2019-02-08T04:12:03.768Z,4.10
2019-02-08T04:16:56.147Z,4.20
2019-02-08T04:21:48.430Z,4.30
2019-02-08T04:26:40.770Z,4.40
2019-02-08T04:31:33.445Z,4.60
2019-02-08T04:36:25.957Z,4.60
2019-02-08T04:41:18.536Z,4.60
2019-02-08T04:46:10.843Z,4.60
2019-02-08T04:51:03.135Z,4.70
2019-02-08T04:55:55.711Z,4.70
2019-02-08T05:00:48.440Z,4.60
2019-02-08T05:05:41.089Z,4.70
2019-02-08T05:10:35.175Z,4.60
2019-02-08T05:15:28.406Z,4.60
2019-02-08T05:20:26.283Z,4.60
2019-02-08T05:25:19.249Z,4.60
2019-02-08T05:30:14.613Z,4.60
2019-02-08T05:35:09.395Z,4.60
2019-02-08T05:40:01.955Z,4.60
2019-02-08T05:44:54.781Z,4.70
2019-02-08T05:49:47.396Z,4.70
2019-02-08T05:54:39.723Z,4.80
2019-02-08T05:59:32.114Z,4.80
2019-02-08T06:04:25.242Z,4.90
2019-02-08T06:09:17.628Z,5.00
2019-02-08T06:14:10.133Z,5.00
2019-02-08T06:19:02.788Z,5.00
2019-02-08T06:23:55.559Z,5.00
2019-02-08T06:28:48.196Z,5.00
2019-02-08T06:33:40.808Z,5.00
2019-02-08T06:38:33.359Z,5.10
2019-02-08T06:43:25.826Z,5.10
2019-02-08T06:48:18.610Z,5.10
2019-02-08T06:53:11.312Z,5.10
2019-02-08T06:58:07.241Z,5.10
2019-02-08T07:03:10.892Z,5.10
2019-02-08T07:08:04.820Z,5.10
2019-02-08T07:13:02.156Z,5.10
2019-02-08T07:17:58.590Z,5.10
2019-02-08T07:23:11.022Z,5.10
2019-02-08T07:28:20.433Z,5.10
2019-02-08T07:33:26.978Z,5.10
2019-02-08T07:38:24.565Z,5.20
2019-02-08T07:43:21.412Z,5.20
2019-02-08T07:48:29.613Z,5.30
2019-02-08T07:53:40.281Z,5.30
2019-02-08T07:58:34.448Z,5.40
2019-02-08T08:03:29.005Z,5.40
2019-02-08T08:08:25.762Z,5.50
2019-02-08T08:13:20.373Z,5.60
2019-02-08T08:18:14.826Z,5.60
2019-02-08T08:23:25.546Z,5.70
2019-02-08T08:28:25.497Z,5.80
2019-02-08T08:33:23.376Z,5.90
2019-02-08T08:38:51.897Z,6.00
2019-02-08T08:44:02.367Z,6.10
2019-02-08T08:49:03.808Z,6.20
2019-02-08T08:54:20.330Z,6.30
2019-02-08T08:59:38.778Z,6.40
2019-02-08T09:04:49.115Z,6.50
2019-02-08T09:10:04.594Z,6.60
2019-02-08T09:15:15.155Z,6.70
2019-02-08T09:20:33.460Z,6.80
2019-02-08T09:25:37.988Z,6.80
2019-02-08T09:30:33.245Z,6.90
2019-02-08T09:36:04.816Z,6.90
2019-02-08T09:41:34.189Z,6.90
2019-02-08T09:46:29.857Z,7.10
2019-02-08T09:51:47.353Z,7.20
2019-02-08T09:56:51.026Z,7.20
2019-02-08T10:02:15.188Z,7.30
2019-02-08T10:07:38.378Z,7.40
2019-02-08T10:12:51.760Z,7.50
2019-02-08T10:17:59.233Z,7.60
2019-02-08T10:23:22.107Z,7.80
2019-02-08T10:28:46.601Z,8.10
2019-02-08T10:33:58.773Z,8.10
2019-02-08T10:39:00.187Z,8.10
2019-02-08T10:44:12.320Z,8.10
2019-02-08T10:49:22.966Z,8.40
2019-02-08T10:54:35.200Z,8.50
2019-02-08T11:00:03.948Z,8.50
2019-02-08T11:05:21.863Z,8.60
2019-02-08T11:10:50.890Z,8.80
2019-02-08T11:16:16.724Z,8.70
2019-02-08T11:21:09.374Z,8.60
2019-02-08T11:26:02.502Z,8.50
2019-02-08T11:30:54.957Z,8.50
2019-02-08T11:35:47.338Z,8.40
2019-02-08T11:40:39.648Z,8.20
2019-02-08T11:45:32.845Z,8.20
2019-02-08T11:50:27.261Z,8.20
2019-02-08T11:55:19.921Z,8.30
2019-02-08T12:00:18.641Z,8.40
2019-02-08T12:05:11.398Z,8.40
2019-02-08T12:10:05.773Z,8.40
2019-02-08T12:14:58.461Z,8.40
2019-02-08T12:19:50.872Z,8.30
2019-02-08T12:24:43.513Z,8.20
2019-02-08T12:29:35.925Z,8.10
2019-02-08T12:34:28.272Z,8.10
2019-02-08T12:39:20.965Z,8.20
2019-02-08T12:44:14.477Z,8.20
2019-02-08T12:49:06.997Z,8.40
2019-02-08T12:53:59.257Z,8.50
2019-02-08T12:58:51.849Z,8.50
2019-02-08T13:03:44.342Z,8.70
2019-02-08T13:08:37.349Z,8.80
2019-02-08T13:13:29.705Z,8.90
2019-02-08T13:18:22.418Z,9.10
2019-02-08T13:23:15.209Z,9.20
2019-02-08T13:28:08.158Z,9.30
2019-02-08T13:33:00.834Z,9.40
2019-02-08T13:37:53.232Z,9.40
2019-02-08T13:42:46.097Z,9.40
2019-02-08T13:47:38.831Z,9.50
2019-02-08T13:52:31.478Z,9.50
2019-02-08T13:57:24.151Z,9.40
2019-02-08T14:02:16.706Z,9.50
2019-02-08T14:07:09.306Z,9.60
2019-02-08T14:12:01.641Z,9.60
2019-02-08T14:16:54.126Z,9.60
2019-02-08T14:21:46.917Z,9.50
2019-02-08T14:26:39.551Z,9.40
2019-02-08T14:31:31.978Z,9.30
2019-02-08T14:36:24.769Z,9.20
2019-02-08T14:41:17.375Z,9.00
2019-02-08T14:46:10.118Z,9.00
2019-02-08T14:51:02.901Z,8.90
2019-02-08T14:55:55.752Z,8.80
2019-02-08T15:00:48.161Z,8.80
2019-02-08T15:05:40.817Z,8.80
2019-02-08T15:10:36.337Z,8.80
2019-02-08T15:15:29.183Z,8.80
2019-02-08T15:20:27.801Z,8.70
2019-02-08T15:25:21.596Z,8.70
2019-02-08T15:30:22.509Z,8.70
2019-02-08T15:35:18.404Z,8.70
2019-02-08T15:40:14.228Z,8.70
2019-02-08T15:45:09.982Z,8.70
2019-02-08T15:50:03.007Z,8.70
2019-02-08T15:54:55.456Z,8.60
2019-02-08T15:59:47.953Z,8.50
2019-02-08T16:04:40.520Z,8.40
2019-02-08T16:09:33.193Z,8.30
2019-02-08T16:14:25.825Z,8.20
2019-02-08T16:19:18.297Z,8.10
2019-02-08T16:24:11.176Z,8.00
2019-02-08T16:29:03.837Z,7.90
2019-02-08T16:33:56.335Z,7.80
2019-02-08T16:38:48.782Z,7.80
2019-02-08T16:43:41.764Z,7.70
2019-02-08T16:48:34.498Z,7.70
2019-02-08T16:53:27.054Z,7.60
2019-02-08T16:58:19.416Z,7.50
2019-02-08T17:03:13.928Z,7.50
2019-02-08T17:08:07.056Z,7.40
2019-02-08T17:12:59.464Z,7.40
2019-02-08T17:17:51.954Z,7.30
2019-02-08T17:22:44.453Z,7.20
2019-02-08T17:27:36.870Z,7.20
2019-02-08T17:32:29.517Z,7.10
2019-02-08T17:37:22.400Z,7.10
2019-02-08T17:42:14.702Z,7.10
2019-02-08T17:47:07.216Z,7.00
2019-02-08T17:52:00.126Z,6.90
2019-02-08T17:56:53.022Z,6.80
2019-02-08T18:01:45.305Z,6.70
2019-02-08T18:06:37.810Z,6.70
2019-02-08T18:11:30.432Z,6.60
2019-02-08T18:16:22.889Z,6.60
2019-02-08T18:21:15.174Z,6.60
2019-02-08T18:26:07.669Z,6.50
2019-02-08T18:31:00.482Z,6.40
2019-02-08T18:35:53.841Z,6.40
2019-02-08T18:40:46.866Z,6.40
2019-02-08T18:45:39.572Z,6.40
2019-02-08T18:50:34.610Z,6.40
2019-02-08T18:55:27.201Z,6.30
2019-02-08T19:00:31.192Z,6.20
2019-02-08T19:05:23.689Z,6.20
2019-02-08T19:10:19.251Z,6.10
2019-02-08T19:15:14.734Z,6.10
2019-02-08T19:20:10.150Z,6.10
2019-02-08T19:25:02.372Z,6.20
2019-02-08T19:29:54.852Z,6.30
2019-02-08T19:34:47.935Z,6.20
2019-02-08T19:39:40.404Z,6.20
2019-02-08T19:44:32.935Z,6.20
2019-02-08T19:49:25.417Z,6.20
2019-02-08T19:54:17.931Z,6.00
2019-02-08T19:59:29.941Z,5.90
2019-02-08T20:04:23.705Z,5.80
2019-02-08T20:09:16.502Z,5.80
2019-02-08T20:14:09.037Z,5.80
2019-02-08T20:19:01.616Z,5.80
2019-02-08T20:23:54.165Z,5.90
2019-02-08T20:28:46.621Z,6.00
2019-02-08T20:33:39.556Z,5.90
2019-02-08T20:38:31.898Z,6.00
2019-02-08T20:43:24.536Z,6.00
2019-02-08T20:48:20.130Z,6.10
2019-02-08T20:53:12.600Z,6.20
2019-02-08T20:58:08.599Z,6.20
2019-02-08T21:03:01.710Z,6.30
2019-02-08T21:07:53.746Z,6.40
2019-02-08T21:12:46.280Z,6.40
2019-02-08T21:17:39.272Z,6.50
2019-02-08T21:22:32.087Z,6.60
2019-02-08T21:27:24.470Z,6.60
2019-02-08T21:32:17.225Z,6.60
2019-02-08T21:37:09.724Z,6.60
2019-02-08T21:42:02.058Z,6.60
2019-02-08T21:46:54.664Z,6.70
2019-02-08T21:51:47.217Z,6.70
2019-02-08T21:56:40.022Z,6.70
2019-02-08T22:01:32.435Z,6.70
2019-02-08T22:06:25.247Z,6.70
2019-02-08T22:11:18.133Z,6.70
2019-02-08T22:16:10.800Z,6.70
2019-02-08T22:21:03.404Z,6.70
2019-02-08T22:25:56.153Z,6.60
2019-02-08T22:30:49.196Z,6.60
2019-02-08T22:35:41.678Z,6.50
2019-02-08T22:40:34.517Z,6.50
2019-02-08T22:45:32.189Z,6.50
2019-02-08T22:50:25.233Z,6.60
2019-02-08T22:55:34.347Z,6.60
2019-02-08T23:00:42.494Z,6.60
2019-02-08T23:05:35.297Z,6.60
2019-02-08T23:10:28.065Z,6.70
2019-02-08T23:15:20.917Z,6.70
2019-02-08T23:20:13.578Z,6.70
2019-02-08T23:25:06.831Z,6.70
2019-02-08T23:29:59.617Z,6.70
2019-02-08T23:34:52.486Z,6.70
2019-02-08T23:39:45.070Z,6.70
2019-02-08T23:44:38.036Z,6.60
2019-02-08T23:49:30.780Z,6.60
2019-02-08T23:54:23.265Z,6.60
2019-02-08T23:59:16.042Z,6.70
